sensor_id;sensor_type;location;lat;lon;timestamp;P1;durP1;ratioP1;P2;durP2;ratioP2
14078;SDS011;7115;50.150;8.568;2023-10-19T00:00:32;9.23;;;7.33;;
14078;SDS011;7115;50.150;8.568;2023-10-19T00:03:06;11.50;;;7.60;;
14078;SDS011;7115;50.150;8.568;2023-10-19T00:05:35;10.03;;;7.17;;
14078;SDS011;7115;50.150;8.568;2023-10-19T00:08:03;10.70;;;7.53;;
14078;SDS011;7115;50.150;8.568;2023-10-19T00:10:33;12.57;;;8.20;;
14078;SDS011;7115;50.150;8.568;2023-10-19T00:13:01;10.13;;;7.37;;
14078;SDS011;7115;50.150;8.568;2023-10-19T00:15:32;10.73;;;7.83;;
14078;SDS011;7115;50.150;8.568;2023-10-19T00:18:01;10.70;;;7.87;;
14078;SDS011;7115;50.150;8.568;2023-10-19T00:20:48;10.33;;;7.97;;
14078;SDS011;7115;50.150;8.568;2023-10-19T00:23:20;12.10;;;8.40;;
14078;SDS011;7115;50.150;8.568;2023-10-19T00:25:55;10.77;;;7.97;;
14078;SDS011;7115;50.150;8.568;2023-10-19T00:28:23;10.33;;;7.63;;
14078;SDS011;7115;50.150;8.568;2023-10-19T00:30:52;11.90;;;8.43;;
14078;SDS011;7115;50.150;8.568;2023-10-19T00:33:20;12.10;;;8.10;;
14078;SDS011;7115;50.150;8.568;2023-10-19T00:35:58;12.30;;;7.93;;
14078;SDS011;7115;50.150;8.568;2023-10-19T00:38:55;10.83;;;8.30;;
14078;SDS011;7115;50.150;8.568;2023-10-19T00:41:23;9.87;;;7.53;;
14078;SDS011;7115;50.150;8.568;2023-10-19T00:43:56;11.70;;;7.57;;
14078;SDS011;7115;50.150;8.568;2023-10-19T00:46:37;9.63;;;7.50;;
14078;SDS011;7115;50.150;8.568;2023-10-19T00:49:10;9.73;;;7.70;;
14078;SDS011;7115;50.150;8.568;2023-10-19T00:51:44;11.57;;;7.67;;
14078;SDS011;7115;50.150;8.568;2023-10-19T00:54:23;9.83;;;6.83;;
14078;SDS011;7115;50.150;8.568;2023-10-19T00:56:58;10.57;;;6.87;;
14078;SDS011;7115;50.150;8.568;2023-10-19T00:59:30;10.07;;;6.90;;
14078;SDS011;7115;50.150;8.568;2023-10-19T01:02:01;8.47;;;6.67;;
14078;SDS011;7115;50.150;8.568;2023-10-19T01:04:43;9.00;;;7.17;;
14078;SDS011;7115;50.150;8.568;2023-10-19T01:07:12;7.20;;;6.20;;
14078;SDS011;7115;50.150;8.568;2023-10-19T01:09:39;8.07;;;6.67;;
14078;SDS011;7115;50.150;8.568;2023-10-19T01:12:07;8.70;;;6.50;;
14078;SDS011;7115;50.150;8.568;2023-10-19T01:15:00;7.40;;;6.10;;
14078;SDS011;7115;50.150;8.568;2023-10-19T01:17:32;8.00;;;6.13;;
14078;SDS011;7115;50.150;8.568;2023-10-19T01:20:08;8.17;;;5.70;;
14078;SDS011;7115;50.150;8.568;2023-10-19T01:22:56;6.43;;;5.37;;
14078;SDS011;7115;50.150;8.568;2023-10-19T01:25:42;7.53;;;5.17;;
14078;SDS011;7115;50.150;8.568;2023-10-19T01:28:25;6.60;;;5.40;;
14078;SDS011;7115;50.150;8.568;2023-10-19T01:31:14;6.73;;;5.20;;
14078;SDS011;7115;50.150;8.568;2023-10-19T01:33:55;9.77;;;5.53;;
14078;SDS011;7115;50.150;8.568;2023-10-19T01:36:23;6.10;;;5.10;;
14078;SDS011;7115;50.150;8.568;2023-10-19T01:38:53;5.67;;;5.07;;
14078;SDS011;7115;50.150;8.568;2023-10-19T01:41:21;6.23;;;5.00;;
14078;SDS011;7115;50.150;8.568;2023-10-19T01:43:51;6.03;;;4.53;;
14078;SDS011;7115;50.150;8.568;2023-10-19T01:46:21;5.63;;;4.33;;
14078;SDS011;7115;50.150;8.568;2023-10-19T01:48:57;5.27;;;4.37;;
14078;SDS011;7115;50.150;8.568;2023-10-19T01:51:24;6.13;;;4.70;;
14078;SDS011;7115;50.150;8.568;2023-10-19T01:53:54;5.87;;;4.40;;
14078;SDS011;7115;50.150;8.568;2023-10-19T01:56:22;5.60;;;4.20;;
14078;SDS011;7115;50.150;8.568;2023-10-19T01:58:50;5.23;;;4.67;;
14078;SDS011;7115;50.150;8.568;2023-10-19T02:01:18;6.97;;;4.90;;
14078;SDS011;7115;50.150;8.568;2023-10-19T02:03:52;5.90;;;4.87;;
14078;SDS011;7115;50.150;8.568;2023-10-19T02:06:21;7.27;;;4.97;;
14078;SDS011;7115;50.150;8.568;2023-10-19T02:09:03;6.07;;;5.37;;
14078;SDS011;7115;50.150;8.568;2023-10-19T02:11:42;7.60;;;5.60;;
14078;SDS011;7115;50.150;8.568;2023-10-19T02:14:12;6.67;;;5.03;;
14078;SDS011;7115;50.150;8.568;2023-10-19T02:16:40;8.47;;;5.27;;
14078;SDS011;7115;50.150;8.568;2023-10-19T02:19:09;6.37;;;5.37;;
14078;SDS011;7115;50.150;8.568;2023-10-19T02:21:36;6.40;;;5.23;;
14078;SDS011;7115;50.150;8.568;2023-10-19T02:24:08;5.83;;;4.77;;
14078;SDS011;7115;50.150;8.568;2023-10-19T02:26:35;8.13;;;5.70;;
14078;SDS011;7115;50.150;8.568;2023-10-19T02:29:04;8.07;;;5.93;;
14078;SDS011;7115;50.150;8.568;2023-10-19T02:31:34;7.07;;;5.73;;
14078;SDS011;7115;50.150;8.568;2023-10-19T02:34:04;7.50;;;5.93;;
14078;SDS011;7115;50.150;8.568;2023-10-19T02:36:31;7.57;;;5.90;;
14078;SDS011;7115;50.150;8.568;2023-10-19T02:38:59;6.80;;;5.50;;
14078;SDS011;7115;50.150;8.568;2023-10-19T02:41:35;6.20;;;5.20;;
14078;SDS011;7115;50.150;8.568;2023-10-19T02:44:04;6.30;;;5.13;;
14078;SDS011;7115;50.150;8.568;2023-10-19T02:46:38;6.87;;;5.33;;
14078;SDS011;7115;50.150;8.568;2023-10-19T02:49:06;9.80;;;5.77;;
14078;SDS011;7115;50.150;8.568;2023-10-19T02:51:38;6.10;;;5.47;;
14078;SDS011;7115;50.150;8.568;2023-10-19T02:54:08;7.00;;;5.90;;
14078;SDS011;7115;50.150;8.568;2023-10-19T02:56:43;8.00;;;6.07;;
14078;SDS011;7115;50.150;8.568;2023-10-19T02:59:16;7.57;;;5.90;;
14078;SDS011;7115;50.150;8.568;2023-10-19T03:01:49;9.73;;;5.83;;
14078;SDS011;7115;50.150;8.568;2023-10-19T03:04:17;8.77;;;6.30;;
14078;SDS011;7115;50.150;8.568;2023-10-19T03:06:44;7.97;;;6.03;;
14078;SDS011;7115;50.150;8.568;2023-10-19T03:09:12;7.90;;;5.90;;
14078;SDS011;7115;50.150;8.568;2023-10-19T03:11:49;8.93;;;6.27;;
14078;SDS011;7115;50.150;8.568;2023-10-19T03:14:21;9.57;;;6.83;;
14078;SDS011;7115;50.150;8.568;2023-10-19T03:16:51;8.73;;;7.40;;
14078;SDS011;7115;50.150;8.568;2023-10-19T03:19:21;9.37;;;6.77;;
14078;SDS011;7115;50.150;8.568;2023-10-19T03:21:48;9.87;;;7.93;;
14078;SDS011;7115;50.150;8.568;2023-10-19T03:24:16;10.00;;;7.80;;
14078;SDS011;7115;50.150;8.568;2023-10-19T03:27:03;9.80;;;7.70;;
14078;SDS011;7115;50.150;8.568;2023-10-19T03:29:50;9.90;;;8.07;;
14078;SDS011;7115;50.150;8.568;2023-10-19T03:32:22;9.73;;;7.27;;
14078;SDS011;7115;50.150;8.568;2023-10-19T03:34:53;11.20;;;8.63;;
14078;SDS011;7115;50.150;8.568;2023-10-19T03:37:23;13.57;;;9.30;;
14078;SDS011;7115;50.150;8.568;2023-10-19T03:39:52;12.73;;;8.87;;
14078;SDS011;7115;50.150;8.568;2023-10-19T03:42:24;11.23;;;8.33;;
14078;SDS011;7115;50.150;8.568;2023-10-19T03:45:12;13.87;;;9.50;;
14078;SDS011;7115;50.150;8.568;2023-10-19T03:47:39;12.60;;;8.83;;
14078;SDS011;7115;50.150;8.568;2023-10-19T03:50:09;13.30;;;8.90;;
14078;SDS011;7115;50.150;8.568;2023-10-19T03:52:46;12.80;;;9.33;;
14078;SDS011;7115;50.150;8.568;2023-10-19T03:55:14;11.83;;;8.80;;
14078;SDS011;7115;50.150;8.568;2023-10-19T03:57:51;14.77;;;9.23;;
14078;SDS011;7115;50.150;8.568;2023-10-19T04:00:21;13.93;;;9.43;;
14078;SDS011;7115;50.150;8.568;2023-10-19T04:02:51;13.53;;;9.50;;
14078;SDS011;7115;50.150;8.568;2023-10-19T04:05:20;11.27;;;8.73;;
14078;SDS011;7115;50.150;8.568;2023-10-19T04:07:49;14.43;;;10.00;;
14078;SDS011;7115;50.150;8.568;2023-10-19T04:10:18;19.27;;;9.10;;
14078;SDS011;7115;50.150;8.568;2023-10-19T04:13:07;13.63;;;9.63;;
14078;SDS011;7115;50.150;8.568;2023-10-19T04:15:39;13.30;;;9.27;;
14078;SDS011;7115;50.150;8.568;2023-10-19T04:18:08;16.00;;;9.90;;
14078;SDS011;7115;50.150;8.568;2023-10-19T04:20:35;15.10;;;9.83;;
14078;SDS011;7115;50.150;8.568;2023-10-19T04:23:20;11.70;;;8.83;;
14078;SDS011;7115;50.150;8.568;2023-10-19T04:25:48;13.60;;;9.13;;
14078;SDS011;7115;50.150;8.568;2023-10-19T04:28:16;15.30;;;9.80;;
14078;SDS011;7115;50.150;8.568;2023-10-19T04:30:56;16.30;;;9.77;;
14078;SDS011;7115;50.150;8.568;2023-10-19T04:33:30;15.50;;;10.03;;
14078;SDS011;7115;50.150;8.568;2023-10-19T04:35:57;17.27;;;10.30;;
14078;SDS011;7115;50.150;8.568;2023-10-19T04:38:29;17.57;;;10.70;;
14078;SDS011;7115;50.150;8.568;2023-10-19T04:41:03;19.40;;;11.07;;
14078;SDS011;7115;50.150;8.568;2023-10-19T04:43:34;18.57;;;11.77;;
14078;SDS011;7115;50.150;8.568;2023-10-19T04:46:06;23.83;;;11.70;;
14078;SDS011;7115;50.150;8.568;2023-10-19T04:48:37;27.90;;;12.13;;
14078;SDS011;7115;50.150;8.568;2023-10-19T04:51:06;24.90;;;12.57;;
14078;SDS011;7115;50.150;8.568;2023-10-19T04:53:33;31.30;;;12.30;;
14078;SDS011;7115;50.150;8.568;2023-10-19T04:56:00;23.73;;;13.27;;
14078;SDS011;7115;50.150;8.568;2023-10-19T04:58:27;25.87;;;12.77;;
14078;SDS011;7115;50.150;8.568;2023-10-19T05:00:56;27.27;;;12.70;;
14078;SDS011;7115;50.150;8.568;2023-10-19T05:03:25;34.07;;;13.43;;
14078;SDS011;7115;50.150;8.568;2023-10-19T05:05:54;40.27;;;14.00;;
14078;SDS011;7115;50.150;8.568;2023-10-19T05:08:22;34.07;;;13.97;;
14078;SDS011;7115;50.150;8.568;2023-10-19T05:10:56;31.73;;;13.93;;
14078;SDS011;7115;50.150;8.568;2023-10-19T05:13:25;33.10;;;13.37;;
14078;SDS011;7115;50.150;8.568;2023-10-19T05:15:53;37.57;;;15.13;;
14078;SDS011;7115;50.150;8.568;2023-10-19T05:18:22;35.60;;;14.63;;
14078;SDS011;7115;50.150;8.568;2023-10-19T05:20:49;38.90;;;15.53;;
14078;SDS011;7115;50.150;8.568;2023-10-19T05:23:22;42.83;;;14.97;;
14078;SDS011;7115;50.150;8.568;2023-10-19T05:25:50;41.00;;;15.87;;
14078;SDS011;7115;50.150;8.568;2023-10-19T05:28:18;43.90;;;16.07;;
14078;SDS011;7115;50.150;8.568;2023-10-19T05:30:46;49.30;;;17.17;;
14078;SDS011;7115;50.150;8.568;2023-10-19T05:33:12;41.93;;;16.83;;
14078;SDS011;7115;50.150;8.568;2023-10-19T05:35:41;45.20;;;16.97;;
14078;SDS011;7115;50.150;8.568;2023-10-19T05:38:08;49.87;;;17.53;;
14078;SDS011;7115;50.150;8.568;2023-10-19T05:40:35;50.83;;;17.57;;
14078;SDS011;7115;50.150;8.568;2023-10-19T05:43:02;39.53;;;17.03;;
14078;SDS011;7115;50.150;8.568;2023-10-19T05:45:29;46.87;;;17.30;;
14078;SDS011;7115;50.150;8.568;2023-10-19T05:47:56;53.23;;;17.53;;
14078;SDS011;7115;50.150;8.568;2023-10-19T05:50:24;44.23;;;17.27;;
14078;SDS011;7115;50.150;8.568;2023-10-19T05:52:52;57.40;;;19.23;;
14078;SDS011;7115;50.150;8.568;2023-10-19T05:55:22;46.83;;;19.23;;
14078;SDS011;7115;50.150;8.568;2023-10-19T05:57:49;56.63;;;19.00;;
14078;SDS011;7115;50.150;8.568;2023-10-19T06:00:16;63.20;;;19.10;;
14078;SDS011;7115;50.150;8.568;2023-10-19T06:02:47;59.23;;;21.17;;
14078;SDS011;7115;50.150;8.568;2023-10-19T06:05:16;61.50;;;19.67;;
14078;SDS011;7115;50.150;8.568;2023-10-19T06:07:44;54.33;;;19.70;;
14078;SDS011;7115;50.150;8.568;2023-10-19T06:10:14;52.50;;;20.90;;
14078;SDS011;7115;50.150;8.568;2023-10-19T06:12:42;52.97;;;20.00;;
14078;SDS011;7115;50.150;8.568;2023-10-19T06:15:10;54.90;;;20.17;;
14078;SDS011;7115;50.150;8.568;2023-10-19T06:17:38;54.53;;;20.03;;
14078;SDS011;7115;50.150;8.568;2023-10-19T06:20:06;62.27;;;20.73;;
14078;SDS011;7115;50.150;8.568;2023-10-19T06:22:35;50.73;;;19.97;;
14078;SDS011;7115;50.150;8.568;2023-10-19T06:25:02;57.33;;;20.07;;
14078;SDS011;7115;50.150;8.568;2023-10-19T06:27:32;56.17;;;20.50;;
14078;SDS011;7115;50.150;8.568;2023-10-19T06:30:00;53.27;;;20.20;;
14078;SDS011;7115;50.150;8.568;2023-10-19T06:32:27;57.43;;;21.53;;
14078;SDS011;7115;50.150;8.568;2023-10-19T06:34:57;53.20;;;21.10;;
14078;SDS011;7115;50.150;8.568;2023-10-19T06:37:26;47.93;;;19.47;;
14078;SDS011;7115;50.150;8.568;2023-10-19T06:39:53;54.00;;;19.67;;
14078;SDS011;7115;50.150;8.568;2023-10-19T06:42:20;46.43;;;19.30;;
14078;SDS011;7115;50.150;8.568;2023-10-19T06:44:48;50.90;;;20.40;;
14078;SDS011;7115;50.150;8.568;2023-10-19T06:47:19;53.57;;;20.83;;
14078;SDS011;7115;50.150;8.568;2023-10-19T06:49:47;73.87;;;21.50;;
14078;SDS011;7115;50.150;8.568;2023-10-19T06:52:14;55.50;;;21.47;;
14078;SDS011;7115;50.150;8.568;2023-10-19T06:54:42;99.43;;;21.47;;
14078;SDS011;7115;50.150;8.568;2023-10-19T06:57:09;75.47;;;23.00;;
14078;SDS011;7115;50.150;8.568;2023-10-19T06:59:36;61.87;;;21.93;;
14078;SDS011;7115;50.150;8.568;2023-10-19T07:02:05;58.60;;;20.53;;
14078;SDS011;7115;50.150;8.568;2023-10-19T07:04:34;63.27;;;22.20;;
14078;SDS011;7115;50.150;8.568;2023-10-19T07:07:04;50.43;;;20.90;;
14078;SDS011;7115;50.150;8.568;2023-10-19T07:09:31;58.30;;;22.33;;
14078;SDS011;7115;50.150;8.568;2023-10-19T07:12:07;59.63;;;21.93;;
14078;SDS011;7115;50.150;8.568;2023-10-19T07:14:34;65.40;;;21.57;;
14078;SDS011;7115;50.150;8.568;2023-10-19T07:17:04;82.97;;;23.17;;
14078;SDS011;7115;50.150;8.568;2023-10-19T07:19:32;66.27;;;22.80;;
14078;SDS011;7115;50.150;8.568;2023-10-19T07:21:58;192.23;;;26.57;;
14078;SDS011;7115;50.150;8.568;2023-10-19T07:24:30;81.17;;;23.07;;
14078;SDS011;7115;50.150;8.568;2023-10-19T07:27:00;63.10;;;23.07;;
14078;SDS011;7115;50.150;8.568;2023-10-19T07:29:32;72.27;;;25.00;;
14078;SDS011;7115;50.150;8.568;2023-10-19T07:31:59;88.07;;;24.20;;
14078;SDS011;7115;50.150;8.568;2023-10-19T07:34:27;59.00;;;25.03;;
14078;SDS011;7115;50.150;8.568;2023-10-19T07:36:57;68.27;;;26.77;;
14078;SDS011;7115;50.150;8.568;2023-10-19T07:39:27;125.23;;;27.07;;
14078;SDS011;7115;50.150;8.568;2023-10-19T07:41:56;99.03;;;27.90;;
14078;SDS011;7115;50.150;8.568;2023-10-19T07:44:23;99.90;;;25.47;;
14078;SDS011;7115;50.150;8.568;2023-10-19T07:46:51;89.10;;;24.57;;
14078;SDS011;7115;50.150;8.568;2023-10-19T07:49:18;81.87;;;25.27;;
14078;SDS011;7115;50.150;8.568;2023-10-19T07:51:46;121.80;;;26.00;;
14078;SDS011;7115;50.150;8.568;2023-10-19T07:54:13;68.03;;;26.33;;
14078;SDS011;7115;50.150;8.568;2023-10-19T07:56:40;91.40;;;26.37;;
14078;SDS011;7115;50.150;8.568;2023-10-19T07:59:08;95.63;;;28.30;;
14078;SDS011;7115;50.150;8.568;2023-10-19T08:01:34;64.47;;;28.03;;
14078;SDS011;7115;50.150;8.568;2023-10-19T08:04:04;101.37;;;28.80;;
14078;SDS011;7115;50.150;8.568;2023-10-19T08:06:32;66.00;;;27.33;;
14078;SDS011;7115;50.150;8.568;2023-10-19T08:08:59;58.50;;;26.23;;
14078;SDS011;7115;50.150;8.568;2023-10-19T08:11:26;59.20;;;26.90;;
14078;SDS011;7115;50.150;8.568;2023-10-19T08:13:53;66.60;;;26.37;;
14078;SDS011;7115;50.150;8.568;2023-10-19T08:16:21;70.90;;;25.50;;
14078;SDS011;7115;50.150;8.568;2023-10-19T08:18:49;60.33;;;26.87;;
14078;SDS011;7115;50.150;8.568;2023-10-19T08:21:23;62.97;;;26.63;;
14078;SDS011;7115;50.150;8.568;2023-10-19T08:23:51;63.43;;;25.27;;
14078;SDS011;7115;50.150;8.568;2023-10-19T08:26:20;62.40;;;26.87;;
14078;SDS011;7115;50.150;8.568;2023-10-19T08:28:47;68.57;;;27.60;;
14078;SDS011;7115;50.150;8.568;2023-10-19T08:31:16;64.93;;;26.67;;
14078;SDS011;7115;50.150;8.568;2023-10-19T08:33:43;52.00;;;25.03;;
14078;SDS011;7115;50.150;8.568;2023-10-19T08:36:15;129.47;;;25.60;;
14078;SDS011;7115;50.150;8.568;2023-10-19T08:38:46;74.40;;;26.70;;
14078;SDS011;7115;50.150;8.568;2023-10-19T08:41:13;61.60;;;26.70;;
14078;SDS011;7115;50.150;8.568;2023-10-19T08:43:41;93.17;;;26.13;;
14078;SDS011;7115;50.150;8.568;2023-10-19T08:46:08;76.77;;;38.97;;
14078;SDS011;7115;50.150;8.568;2023-10-19T08:48:38;69.80;;;34.53;;
14078;SDS011;7115;50.150;8.568;2023-10-19T08:51:09;71.23;;;26.00;;
14078;SDS011;7115;50.150;8.568;2023-10-19T08:53:36;121.70;;;25.63;;
14078;SDS011;7115;50.150;8.568;2023-10-19T08:56:08;50.33;;;25.03;;
14078;SDS011;7115;50.150;8.568;2023-10-19T08:58:35;53.13;;;24.47;;
14078;SDS011;7115;50.150;8.568;2023-10-19T09:01:02;48.90;;;24.70;;
14078;SDS011;7115;50.150;8.568;2023-10-19T09:03:33;58.13;;;23.00;;
14078;SDS011;7115;50.150;8.568;2023-10-19T09:06:01;44.13;;;23.57;;
14078;SDS011;7115;50.150;8.568;2023-10-19T09:08:28;50.60;;;25.20;;
14078;SDS011;7115;50.150;8.568;2023-10-19T09:11:09;55.93;;;25.10;;
14078;SDS011;7115;50.150;8.568;2023-10-19T09:13:45;53.70;;;26.73;;
14078;SDS011;7115;50.150;8.568;2023-10-19T09:16:14;56.33;;;24.83;;
14078;SDS011;7115;50.150;8.568;2023-10-19T09:18:42;55.53;;;26.07;;
14078;SDS011;7115;50.150;8.568;2023-10-19T09:21:09;72.53;;;27.77;;
14078;SDS011;7115;50.150;8.568;2023-10-19T09:23:47;73.70;;;25.80;;
14078;SDS011;7115;50.150;8.568;2023-10-19T09:26:17;76.23;;;25.60;;
14078;SDS011;7115;50.150;8.568;2023-10-19T09:28:45;83.60;;;27.77;;
14078;SDS011;7115;50.150;8.568;2023-10-19T09:31:17;100.93;;;26.53;;
14078;SDS011;7115;50.150;8.568;2023-10-19T09:33:45;100.80;;;28.20;;
14078;SDS011;7115;50.150;8.568;2023-10-19T09:36:13;65.40;;;27.67;;
14078;SDS011;7115;50.150;8.568;2023-10-19T09:38:44;60.07;;;27.97;;
14078;SDS011;7115;50.150;8.568;2023-10-19T09:41:17;61.03;;;27.30;;
14078;SDS011;7115;50.150;8.568;2023-10-19T09:43:45;62.03;;;28.37;;
14078;SDS011;7115;50.150;8.568;2023-10-19T09:46:20;79.73;;;27.13;;
14078;SDS011;7115;50.150;8.568;2023-10-19T09:48:48;59.03;;;26.83;;
14078;SDS011;7115;50.150;8.568;2023-10-19T09:51:16;54.50;;;26.97;;
14078;SDS011;7115;50.150;8.568;2023-10-19T09:53:46;62.20;;;27.50;;
14078;SDS011;7115;50.150;8.568;2023-10-19T09:56:19;64.47;;;28.10;;
14078;SDS011;7115;50.150;8.568;2023-10-19T09:58:53;63.70;;;28.63;;
14078;SDS011;7115;50.150;8.568;2023-10-19T10:01:24;58.73;;;27.53;;
14078;SDS011;7115;50.150;8.568;2023-10-19T10:03:52;59.33;;;28.97;;
14078;SDS011;7115;50.150;8.568;2023-10-19T10:06:27;63.30;;;29.03;;
14078;SDS011;7115;50.150;8.568;2023-10-19T10:08:54;62.37;;;29.60;;
14078;SDS011;7115;50.150;8.568;2023-10-19T10:11:24;58.07;;;28.23;;
14078;SDS011;7115;50.150;8.568;2023-10-19T10:13:56;63.00;;;29.43;;
14078;SDS011;7115;50.150;8.568;2023-10-19T10:16:25;64.00;;;28.67;;
14078;SDS011;7115;50.150;8.568;2023-10-19T10:18:57;62.07;;;29.47;;
14078;SDS011;7115;50.150;8.568;2023-10-19T10:21:28;66.50;;;29.80;;
14078;SDS011;7115;50.150;8.568;2023-10-19T10:23:57;71.67;;;34.67;;
14078;SDS011;7115;50.150;8.568;2023-10-19T10:26:27;72.13;;;29.83;;
14078;SDS011;7115;50.150;8.568;2023-10-19T10:29:09;61.53;;;29.17;;
14078;SDS011;7115;50.150;8.568;2023-10-19T10:31:47;64.73;;;27.50;;
14078;SDS011;7115;50.150;8.568;2023-10-19T10:37:10;59.17;;;28.73;;
14078;SDS011;7115;50.150;8.568;2023-10-19T10:39:39;64.87;;;30.63;;
14078;SDS011;7115;50.150;8.568;2023-10-19T10:42:08;61.57;;;29.27;;
14078;SDS011;7115;50.150;8.568;2023-10-19T10:44:39;71.53;;;30.17;;
14078;SDS011;7115;50.150;8.568;2023-10-19T10:47:07;65.70;;;31.40;;
14078;SDS011;7115;50.150;8.568;2023-10-19T10:49:49;67.13;;;30.37;;
14078;SDS011;7115;50.150;8.568;2023-10-19T10:52:27;66.23;;;29.90;;
14078;SDS011;7115;50.150;8.568;2023-10-19T10:55:05;69.20;;;30.17;;
14078;SDS011;7115;50.150;8.568;2023-10-19T10:57:35;68.33;;;29.13;;
14078;SDS011;7115;50.150;8.568;2023-10-19T11:00:03;74.87;;;32.43;;
14078;SDS011;7115;50.150;8.568;2023-10-19T11:02:34;63.97;;;31.53;;
14078;SDS011;7115;50.150;8.568;2023-10-19T11:05:02;63.87;;;31.00;;
14078;SDS011;7115;50.150;8.568;2023-10-19T11:07:30;77.00;;;36.23;;
14078;SDS011;7115;50.150;8.568;2023-10-19T11:09:58;60.17;;;28.90;;
14078;SDS011;7115;50.150;8.568;2023-10-19T11:12:25;68.57;;;29.13;;
14078;SDS011;7115;50.150;8.568;2023-10-19T11:14:54;56.37;;;27.17;;
14078;SDS011;7115;50.150;8.568;2023-10-19T11:17:22;56.60;;;27.90;;
14078;SDS011;7115;50.150;8.568;2023-10-19T11:19:54;62.33;;;28.37;;
14078;SDS011;7115;50.150;8.568;2023-10-19T11:22:24;54.87;;;28.10;;
14078;SDS011;7115;50.150;8.568;2023-10-19T11:24:53;48.23;;;26.40;;
14078;SDS011;7115;50.150;8.568;2023-10-19T11:27:24;49.70;;;25.87;;
14078;SDS011;7115;50.150;8.568;2023-10-19T11:29:55;43.40;;;25.00;;
14078;SDS011;7115;50.150;8.568;2023-10-19T11:32:23;43.33;;;24.77;;
14078;SDS011;7115;50.150;8.568;2023-10-19T11:34:53;51.47;;;25.73;;
14078;SDS011;7115;50.150;8.568;2023-10-19T11:37:21;52.33;;;24.77;;
14078;SDS011;7115;50.150;8.568;2023-10-19T11:39:48;66.43;;;27.47;;
14078;SDS011;7115;50.150;8.568;2023-10-19T11:42:18;48.67;;;26.43;;
14078;SDS011;7115;50.150;8.568;2023-10-19T11:44:46;53.03;;;26.87;;
14078;SDS011;7115;50.150;8.568;2023-10-19T11:47:14;46.73;;;24.37;;
14078;SDS011;7115;50.150;8.568;2023-10-19T11:49:41;42.73;;;24.70;;
14078;SDS011;7115;50.150;8.568;2023-10-19T11:52:08;45.27;;;24.43;;
14078;SDS011;7115;50.150;8.568;2023-10-19T11:54:35;52.17;;;29.23;;
14078;SDS011;7115;50.150;8.568;2023-10-19T11:57:05;41.47;;;24.13;;
14078;SDS011;7115;50.150;8.568;2023-10-19T11:59:32;45.17;;;23.87;;
14078;SDS011;7115;50.150;8.568;2023-10-19T12:01:59;39.83;;;23.17;;
14078;SDS011;7115;50.150;8.568;2023-10-19T12:04:28;37.17;;;22.93;;
14078;SDS011;7115;50.150;8.568;2023-10-19T12:06:56;44.07;;;23.37;;
14078;SDS011;7115;50.150;8.568;2023-10-19T12:09:22;39.40;;;22.27;;
14078;SDS011;7115;50.150;8.568;2023-10-19T12:11:51;36.43;;;22.43;;
14078;SDS011;7115;50.150;8.568;2023-10-19T12:14:21;41.43;;;23.17;;
14078;SDS011;7115;50.150;8.568;2023-10-19T12:16:49;38.90;;;23.30;;
14078;SDS011;7115;50.150;8.568;2023-10-19T12:19:16;44.40;;;23.93;;
14078;SDS011;7115;50.150;8.568;2023-10-19T12:21:46;45.60;;;27.37;;
14078;SDS011;7115;50.150;8.568;2023-10-19T12:24:15;37.20;;;23.57;;
14078;SDS011;7115;50.150;8.568;2023-10-19T12:26:42;38.07;;;22.97;;
14078;SDS011;7115;50.150;8.568;2023-10-19T12:29:11;35.80;;;22.83;;
14078;SDS011;7115;50.150;8.568;2023-10-19T12:31:40;34.60;;;22.37;;
14078;SDS011;7115;50.150;8.568;2023-10-19T12:34:07;31.60;;;20.30;;
14078;SDS011;7115;50.150;8.568;2023-10-19T12:36:36;35.27;;;20.83;;
14078;SDS011;7115;50.150;8.568;2023-10-19T12:39:04;34.47;;;20.77;;
14078;SDS011;7115;50.150;8.568;2023-10-19T12:41:35;34.90;;;20.90;;
14078;SDS011;7115;50.150;8.568;2023-10-19T12:44:02;29.40;;;20.37;;
14078;SDS011;7115;50.150;8.568;2023-10-19T12:46:35;33.73;;;20.63;;
14078;SDS011;7115;50.150;8.568;2023-10-19T12:49:04;32.47;;;20.77;;
14078;SDS011;7115;50.150;8.568;2023-10-19T12:51:34;32.67;;;20.23;;
14078;SDS011;7115;50.150;8.568;2023-10-19T12:54:01;32.13;;;20.27;;
14078;SDS011;7115;50.150;8.568;2023-10-19T12:56:31;31.13;;;19.30;;
14078;SDS011;7115;50.150;8.568;2023-10-19T12:59:01;31.23;;;19.40;;
14078;SDS011;7115;50.150;8.568;2023-10-19T13:01:29;36.80;;;24.70;;
14078;SDS011;7115;50.150;8.568;2023-10-19T13:04:00;32.17;;;20.63;;
14078;SDS011;7115;50.150;8.568;2023-10-19T13:06:40;35.30;;;20.00;;
14078;SDS011;7115;50.150;8.568;2023-10-19T13:09:07;36.93;;;20.53;;
14078;SDS011;7115;50.150;8.568;2023-10-19T13:11:36;50.43;;;21.50;;
14078;SDS011;7115;50.150;8.568;2023-10-19T13:14:05;34.10;;;21.17;;
14078;SDS011;7115;50.150;8.568;2023-10-19T13:16:32;34.67;;;20.90;;
14078;SDS011;7115;50.150;8.568;2023-10-19T13:19:01;33.93;;;21.73;;
14078;SDS011;7115;50.150;8.568;2023-10-19T13:21:39;45.17;;;21.10;;
14078;SDS011;7115;50.150;8.568;2023-10-19T13:24:08;31.30;;;20.60;;
14078;SDS011;7115;50.150;8.568;2023-10-19T13:26:36;35.13;;;20.93;;
14078;SDS011;7115;50.150;8.568;2023-10-19T13:29:06;31.47;;;21.90;;
14078;SDS011;7115;50.150;8.568;2023-10-19T13:31:33;36.70;;;21.40;;
14078;SDS011;7115;50.150;8.568;2023-10-19T13:34:01;33.30;;;21.83;;
14078;SDS011;7115;50.150;8.568;2023-10-19T13:36:29;30.10;;;20.50;;
14078;SDS011;7115;50.150;8.568;2023-10-19T13:38:56;31.17;;;20.43;;
14078;SDS011;7115;50.150;8.568;2023-10-19T13:41:23;38.97;;;21.87;;
14078;SDS011;7115;50.150;8.568;2023-10-19T13:43:51;35.93;;;21.83;;
14078;SDS011;7115;50.150;8.568;2023-10-19T13:46:18;34.37;;;21.87;;
14078;SDS011;7115;50.150;8.568;2023-10-19T13:48:46;37.47;;;21.77;;
14078;SDS011;7115;50.150;8.568;2023-10-19T13:51:15;41.43;;;22.53;;
14078;SDS011;7115;50.150;8.568;2023-10-19T13:53:42;41.70;;;22.37;;
14078;SDS011;7115;50.150;8.568;2023-10-19T13:56:11;33.03;;;22.03;;
14078;SDS011;7115;50.150;8.568;2023-10-19T13:58:41;37.80;;;23.23;;
14078;SDS011;7115;50.150;8.568;2023-10-19T14:01:09;40.57;;;22.57;;
14078;SDS011;7115;50.150;8.568;2023-10-19T14:03:39;42.13;;;23.13;;
14078;SDS011;7115;50.150;8.568;2023-10-19T14:06:11;38.93;;;23.77;;
14078;SDS011;7115;50.150;8.568;2023-10-19T14:08:39;43.23;;;24.33;;
14078;SDS011;7115;50.150;8.568;2023-10-19T14:11:06;40.27;;;22.70;;
14078;SDS011;7115;50.150;8.568;2023-10-19T14:13:33;35.57;;;21.67;;
14078;SDS011;7115;50.150;8.568;2023-10-19T14:16:04;33.37;;;22.00;;
14078;SDS011;7115;50.150;8.568;2023-10-19T14:18:33;42.83;;;24.03;;
14078;SDS011;7115;50.150;8.568;2023-10-19T14:21:00;43.13;;;23.63;;
14078;SDS011;7115;50.150;8.568;2023-10-19T14:23:37;38.70;;;23.63;;
14078;SDS011;7115;50.150;8.568;2023-10-19T14:26:06;43.27;;;24.03;;
14078;SDS011;7115;50.150;8.568;2023-10-19T14:28:35;39.83;;;24.13;;
14078;SDS011;7115;50.150;8.568;2023-10-19T14:31:03;42.83;;;23.30;;
14078;SDS011;7115;50.150;8.568;2023-10-19T14:33:30;41.40;;;23.37;;
14078;SDS011;7115;50.150;8.568;2023-10-19T14:35:59;44.80;;;23.93;;
14078;SDS011;7115;50.150;8.568;2023-10-19T14:38:26;36.87;;;22.97;;
14078;SDS011;7115;50.150;8.568;2023-10-19T14:40:53;40.27;;;23.00;;
14078;SDS011;7115;50.150;8.568;2023-10-19T14:43:20;35.87;;;22.10;;
14078;SDS011;7115;50.150;8.568;2023-10-19T14:45:47;32.93;;;22.17;;
14078;SDS011;7115;50.150;8.568;2023-10-19T14:48:14;36.70;;;21.50;;
14078;SDS011;7115;50.150;8.568;2023-10-19T14:50:43;37.97;;;22.07;;
14078;SDS011;7115;50.150;8.568;2023-10-19T14:53:12;35.93;;;22.60;;
14078;SDS011;7115;50.150;8.568;2023-10-19T14:55:39;36.93;;;23.43;;
14078;SDS011;7115;50.150;8.568;2023-10-19T14:58:06;35.87;;;23.57;;
14078;SDS011;7115;50.150;8.568;2023-10-19T15:00:33;36.23;;;23.47;;